sensor_id;sensor_type;location;lat;lon;timestamp;P1;durP1;ratioP1;P2;durP2;ratioP2
74243;SDS011;62600;55.732;37.662;2022-09-09T00:03:33;2.75;;;1.30;;
74243;SDS011;62600;55.732;37.662;2022-09-09T00:05:21;2.20;;;1.30;;
74243;SDS011;62600;55.732;37.662;2022-09-09T00:10:29;2.97;;;1.35;;
74243;SDS011;62600;55.732;37.662;2022-09-09T00:14:06;2.45;;;1.60;;
74243;SDS011;62600;55.732;37.662;2022-09-09T00:17:36;3.55;;;1.77;;
74243;SDS011;62600;55.732;37.662;2022-09-09T00:19:16;1.60;;;1.27;;
74243;SDS011;62600;55.732;37.662;2022-09-09T00:20:56;2.20;;;1.30;;
74243;SDS011;62600;55.732;37.662;2022-09-09T00:22:32;2.35;;;1.65;;
74243;SDS011;62600;55.732;37.662;2022-09-09T00:26:25;4.03;;;1.90;;
74243;SDS011;62600;55.732;37.662;2022-09-09T00:28:02;2.92;;;1.95;;
74243;SDS011;62600;55.732;37.662;2022-09-09T00:29:43;3.53;;;1.80;;
74243;SDS011;62600;55.732;37.662;2022-09-09T00:31:26;2.17;;;1.50;;
74243;SDS011;62600;55.732;37.662;2022-09-09T00:33:05;3.05;;;1.92;;
74243;SDS011;62600;55.732;37.662;2022-09-09T00:34:47;2.78;;;1.15;;
74243;SDS011;62600;55.732;37.662;2022-09-09T00:36:25;2.22;;;1.40;;
74243;SDS011;62600;55.732;37.662;2022-09-09T00:38:21;4.43;;;1.50;;
74243;SDS011;62600;55.732;37.662;2022-09-09T00:39:53;2.28;;;1.58;;
74243;SDS011;62600;55.732;37.662;2022-09-09T00:41:38;3.33;;;1.33;;
74243;SDS011;62600;55.732;37.662;2022-09-09T00:43:30;3.08;;;1.95;;
74243;SDS011;62600;55.732;37.662;2022-09-09T00:57:36;3.15;;;1.60;;
74243;SDS011;62600;55.732;37.662;2022-09-09T00:59:32;2.70;;;1.52;;
74243;SDS011;62600;55.732;37.662;2022-09-09T01:01:08;2.17;;;1.90;;
74243;SDS011;62600;55.732;37.662;2022-09-09T01:04:38;3.45;;;1.60;;
74243;SDS011;62600;55.732;37.662;2022-09-09T01:07:46;4.03;;;2.00;;
74243;SDS011;62600;55.732;37.662;2022-09-09T01:13:15;3.15;;;1.70;;
74243;SDS011;62600;55.732;37.662;2022-09-09T01:14:56;3.75;;;1.63;;
74243;SDS011;62600;55.732;37.662;2022-09-09T01:16:33;3.53;;;1.75;;
74243;SDS011;62600;55.732;37.662;2022-09-09T01:18:06;2.90;;;2.42;;
74243;SDS011;62600;55.732;37.662;2022-09-09T01:23:15;3.85;;;1.83;;
74243;SDS011;62600;55.732;37.662;2022-09-09T01:26:43;2.88;;;1.67;;
74243;SDS011;62600;55.732;37.662;2022-09-09T01:28:25;2.63;;;1.70;;
74243;SDS011;62600;55.732;37.662;2022-09-09T01:29:57;3.85;;;2.17;;
74243;SDS011;62600;55.732;37.662;2022-09-09T01:31:32;3.28;;;1.92;;
74243;SDS011;62600;55.732;37.662;2022-09-09T01:33:24;2.65;;;1.70;;
74243;SDS011;62600;55.732;37.662;2022-09-09T01:34:54;2.20;;;1.65;;
74243;SDS011;62600;55.732;37.662;2022-09-09T01:36:39;3.28;;;1.90;;
74243;SDS011;62600;55.732;37.662;2022-09-09T01:38:16;2.85;;;2.03;;
74243;SDS011;62600;55.732;37.662;2022-09-09T01:39:47;3.00;;;1.95;;
74243;SDS011;62600;55.732;37.662;2022-09-09T01:41:18;3.75;;;2.03;;
74243;SDS011;62600;55.732;37.662;2022-09-09T01:42:49;2.63;;;1.77;;
74243;SDS011;62600;55.732;37.662;2022-09-09T01:44:19;4.35;;;1.95;;
74243;SDS011;62600;55.732;37.662;2022-09-09T01:45:51;3.15;;;2.22;;
74243;SDS011;62600;55.732;37.662;2022-09-09T01:47:24;2.78;;;2.00;;
74243;SDS011;62600;55.732;37.662;2022-09-09T01:48:55;3.60;;;1.83;;
74243;SDS011;62600;55.732;37.662;2022-09-09T01:50:29;2.25;;;1.50;;
74243;SDS011;62600;55.732;37.662;2022-09-09T01:51:59;3.15;;;1.83;;
74243;SDS011;62600;55.732;37.662;2022-09-09T01:53:31;2.58;;;1.67;;
74243;SDS011;62600;55.732;37.662;2022-09-09T01:55:01;4.05;;;1.88;;
74243;SDS011;62600;55.732;37.662;2022-09-09T01:59:53;2.28;;;1.63;;
74243;SDS011;62600;55.732;37.662;2022-09-09T02:04:45;2.92;;;1.77;;
74243;SDS011;62600;55.732;37.662;2022-09-09T02:07:53;2.85;;;2.10;;
74243;SDS011;62600;55.732;37.662;2022-09-09T02:09:33;3.42;;;1.60;;
74243;SDS011;62600;55.732;37.662;2022-09-09T02:11:06;2.95;;;1.95;;
74243;SDS011;62600;55.732;37.662;2022-09-09T02:12:50;2.13;;;1.63;;
74243;SDS011;62600;55.732;37.662;2022-09-09T02:14:27;2.45;;;1.70;;
74243;SDS011;62600;55.732;37.662;2022-09-09T02:20:43;3.17;;;1.50;;
74243;SDS011;62600;55.732;37.662;2022-09-09T02:22:16;2.10;;;1.50;;
74243;SDS011;62600;55.732;37.662;2022-09-09T02:23:49;2.92;;;1.63;;
74243;SDS011;62600;55.732;37.662;2022-09-09T02:25:22;2.22;;;1.45;;
74243;SDS011;62600;55.732;37.662;2022-09-09T02:26:57;3.15;;;1.85;;
74243;SDS011;62600;55.732;37.662;2022-09-09T02:28:31;4.70;;;1.88;;
74243;SDS011;62600;55.732;37.662;2022-09-09T02:30:04;3.45;;;1.67;;
74243;SDS011;62600;55.732;37.662;2022-09-09T02:31:35;3.00;;;1.70;;
74243;SDS011;62600;55.732;37.662;2022-09-09T02:33:07;5.28;;;1.63;;
74243;SDS011;62600;55.732;37.662;2022-09-09T02:34:42;3.92;;;2.55;;
74243;SDS011;62600;55.732;37.662;2022-09-09T02:36:17;2.40;;;1.58;;
74243;SDS011;62600;55.732;37.662;2022-09-09T02:37:50;3.53;;;1.52;;
74243;SDS011;62600;55.732;37.662;2022-09-09T02:39:23;2.58;;;1.70;;
74243;SDS011;62600;55.732;37.662;2022-09-09T02:40:53;3.70;;;1.55;;
74243;SDS011;62600;55.732;37.662;2022-09-09T02:42:24;5.38;;;1.60;;
74243;SDS011;62600;55.732;37.662;2022-09-09T02:43:55;2.38;;;1.60;;
74243;SDS011;62600;55.732;37.662;2022-09-09T02:45:41;3.20;;;1.70;;
74243;SDS011;62600;55.732;37.662;2022-09-09T02:47:23;2.80;;;1.60;;
74243;SDS011;62600;55.732;37.662;2022-09-09T02:49:03;3.22;;;1.63;;
74243;SDS011;62600;55.732;37.662;2022-09-09T02:50:46;2.90;;;1.63;;
74243;SDS011;62600;55.732;37.662;2022-09-09T02:54:40;2.55;;;1.65;;
74243;SDS011;62600;55.732;37.662;2022-09-09T02:56:15;2.38;;;1.70;;
74243;SDS011;62600;55.732;37.662;2022-09-09T02:57:48;4.70;;;1.80;;
74243;SDS011;62600;55.732;37.662;2022-09-09T02:59:21;2.92;;;1.80;;
74243;SDS011;62600;55.732;37.662;2022-09-09T03:00:54;2.30;;;1.73;;
74243;SDS011;62600;55.732;37.662;2022-09-09T03:02:27;4.15;;;1.90;;
74243;SDS011;62600;55.732;37.662;2022-09-09T03:03:58;5.05;;;1.70;;
74243;SDS011;62600;55.732;37.662;2022-09-09T03:05:28;3.00;;;1.73;;
74243;SDS011;62600;55.732;37.662;2022-09-09T03:06:59;2.88;;;1.92;;
74243;SDS011;62600;55.732;37.662;2022-09-09T03:08:29;2.35;;;1.60;;
74243;SDS011;62600;55.732;37.662;2022-09-09T03:10:00;2.33;;;1.77;;
74243;SDS011;62600;55.732;37.662;2022-09-09T03:11:31;2.60;;;1.85;;
74243;SDS011;62600;55.732;37.662;2022-09-09T03:13:01;4.07;;;2.00;;
74243;SDS011;62600;55.732;37.662;2022-09-09T03:14:31;5.25;;;2.10;;
74243;SDS011;62600;55.732;37.662;2022-09-09T03:16:02;2.90;;;1.90;;
74243;SDS011;62600;55.732;37.662;2022-09-09T03:17:33;3.67;;;1.77;;
74243;SDS011;62600;55.732;37.662;2022-09-09T03:19:04;2.33;;;1.70;;
74243;SDS011;62600;55.732;37.662;2022-09-09T03:20:34;3.38;;;1.92;;
74243;SDS011;62600;55.732;37.662;2022-09-09T03:22:05;4.35;;;1.98;;
74243;SDS011;62600;55.732;37.662;2022-09-09T03:23:35;4.00;;;2.20;;
74243;SDS011;62600;55.732;37.662;2022-09-09T03:25:06;3.25;;;1.90;;
74243;SDS011;62600;55.732;37.662;2022-09-09T03:26:37;2.85;;;1.98;;
74243;SDS011;62600;55.732;37.662;2022-09-09T03:28:07;2.28;;;2.00;;
74243;SDS011;62600;55.732;37.662;2022-09-09T03:29:38;5.25;;;2.25;;
74243;SDS011;62600;55.732;37.662;2022-09-09T03:31:08;3.45;;;2.20;;
74243;SDS011;62600;55.732;37.662;2022-09-09T03:32:40;3.35;;;2.40;;
74243;SDS011;62600;55.732;37.662;2022-09-09T03:34:10;3.75;;;2.20;;
74243;SDS011;62600;55.732;37.662;2022-09-09T03:35:45;3.80;;;2.00;;
74243;SDS011;62600;55.732;37.662;2022-09-09T03:37:17;3.90;;;2.50;;
74243;SDS011;62600;55.732;37.662;2022-09-09T03:38:48;3.58;;;2.47;;
74243;SDS011;62600;55.732;37.662;2022-09-09T03:40:20;3.05;;;1.90;;
74243;SDS011;62600;55.732;37.662;2022-09-09T03:41:51;4.70;;;2.25;;
74243;SDS011;62600;55.732;37.662;2022-09-09T03:43:22;3.97;;;2.05;;
74243;SDS011;62600;55.732;37.662;2022-09-09T03:44:53;5.07;;;2.30;;
74243;SDS011;62600;55.732;37.662;2022-09-09T03:46:25;3.60;;;2.50;;
74243;SDS011;62600;55.732;37.662;2022-09-09T03:47:56;4.55;;;2.10;;
74243;SDS011;62600;55.732;37.662;2022-09-09T03:49:27;3.60;;;2.13;;
74243;SDS011;62600;55.732;37.662;2022-09-09T03:50:58;3.40;;;2.33;;
74243;SDS011;62600;55.732;37.662;2022-09-09T03:54:01;5.35;;;1.83;;
74243;SDS011;62600;55.732;37.662;2022-09-09T03:55:35;3.25;;;2.00;;
74243;SDS011;62600;55.732;37.662;2022-09-09T03:57:05;3.65;;;1.98;;
74243;SDS011;62600;55.732;37.662;2022-09-09T03:58:36;2.60;;;1.90;;
74243;SDS011;62600;55.732;37.662;2022-09-09T04:00:07;4.03;;;1.80;;
74243;SDS011;62600;55.732;37.662;2022-09-09T04:01:38;4.00;;;1.85;;
74243;SDS011;62600;55.732;37.662;2022-09-09T04:03:10;2.78;;;1.80;;
74243;SDS011;62600;55.732;37.662;2022-09-09T04:04:41;3.60;;;1.90;;
74243;SDS011;62600;55.732;37.662;2022-09-09T04:06:12;3.17;;;1.85;;
74243;SDS011;62600;55.732;37.662;2022-09-09T04:07:44;3.58;;;1.90;;
74243;SDS011;62600;55.732;37.662;2022-09-09T04:09:14;4.88;;;2.17;;
74243;SDS011;62600;55.732;37.662;2022-09-09T04:10:48;3.00;;;2.15;;
74243;SDS011;62600;55.732;37.662;2022-09-09T04:12:19;3.13;;;2.13;;
74243;SDS011;62600;55.732;37.662;2022-09-09T04:13:51;4.03;;;2.97;;
74243;SDS011;62600;55.732;37.662;2022-09-09T04:15:21;4.07;;;2.40;;
74243;SDS011;62600;55.732;37.662;2022-09-09T04:16:51;3.22;;;2.47;;
74243;SDS011;62600;55.732;37.662;2022-09-09T04:18:22;4.60;;;2.50;;
74243;SDS011;62600;55.732;37.662;2022-09-09T04:19:53;6.07;;;3.08;;
74243;SDS011;62600;55.732;37.662;2022-09-09T04:21:24;2.95;;;2.17;;
74243;SDS011;62600;55.732;37.662;2022-09-09T04:22:54;5.35;;;3.00;;
74243;SDS011;62600;55.732;37.662;2022-09-09T04:24:24;3.80;;;2.95;;
74243;SDS011;62600;55.732;37.662;2022-09-09T04:27:28;5.30;;;3.30;;
74243;SDS011;62600;55.732;37.662;2022-09-09T04:28:59;6.20;;;3.38;;
74243;SDS011;62600;55.732;37.662;2022-09-09T04:30:29;4.88;;;3.42;;
74243;SDS011;62600;55.732;37.662;2022-09-09T04:32:00;4.50;;;3.42;;
74243;SDS011;62600;55.732;37.662;2022-09-09T04:33:30;6.00;;;3.67;;
74243;SDS011;62600;55.732;37.662;2022-09-09T04:35:01;5.53;;;4.18;;
74243;SDS011;62600;55.732;37.662;2022-09-09T04:36:33;5.00;;;3.67;;
74243;SDS011;62600;55.732;37.662;2022-09-09T04:38:04;6.57;;;4.10;;
74243;SDS011;62600;55.732;37.662;2022-09-09T04:39:37;5.55;;;3.47;;
74243;SDS011;62600;55.732;37.662;2022-09-09T04:41:07;4.28;;;3.25;;
74243;SDS011;62600;55.732;37.662;2022-09-09T04:42:41;6.05;;;3.88;;
74243;SDS011;62600;55.732;37.662;2022-09-09T04:44:14;4.55;;;2.83;;
74243;SDS011;62600;55.732;37.662;2022-09-09T04:45:46;4.25;;;2.58;;
74243;SDS011;62600;55.732;37.662;2022-09-09T04:47:18;3.38;;;2.30;;
74243;SDS011;62600;55.732;37.662;2022-09-09T04:48:49;4.70;;;2.90;;
74243;SDS011;62600;55.732;37.662;2022-09-09T04:50:20;3.65;;;2.80;;
74243;SDS011;62600;55.732;37.662;2022-09-09T04:51:50;3.45;;;2.60;;
74243;SDS011;62600;55.732;37.662;2022-09-09T04:53:21;4.55;;;2.50;;
74243;SDS011;62600;55.732;37.662;2022-09-09T04:54:52;3.03;;;2.08;;
74243;SDS011;62600;55.732;37.662;2022-09-09T04:56:24;3.22;;;2.42;;
74243;SDS011;62600;55.732;37.662;2022-09-09T04:57:56;3.38;;;2.60;;
74243;SDS011;62600;55.732;37.662;2022-09-09T04:59:27;4.13;;;2.40;;
74243;SDS011;62600;55.732;37.662;2022-09-09T05:01:08;4.18;;;2.15;;
74243;SDS011;62600;55.732;37.662;2022-09-09T05:02:40;3.70;;;1.92;;
74243;SDS011;62600;55.732;37.662;2022-09-09T05:04:12;3.97;;;2.58;;
74243;SDS011;62600;55.732;37.662;2022-09-09T05:05:44;4.63;;;2.33;;
74243;SDS011;62600;55.732;37.662;2022-09-09T05:07:14;3.63;;;2.13;;
74243;SDS011;62600;55.732;37.662;2022-09-09T05:08:45;3.80;;;2.30;;
74243;SDS011;62600;55.732;37.662;2022-09-09T05:10:15;4.70;;;2.38;;
74243;SDS011;62600;55.732;37.662;2022-09-09T05:11:48;3.58;;;2.25;;
74243;SDS011;62600;55.732;37.662;2022-09-09T05:13:18;3.28;;;2.00;;
74243;SDS011;62600;55.732;37.662;2022-09-09T05:14:49;2.70;;;1.90;;
74243;SDS011;62600;55.732;37.662;2022-09-09T05:16:20;4.10;;;2.00;;
74243;SDS011;62600;55.732;37.662;2022-09-09T05:17:51;2.72;;;1.70;;
74243;SDS011;62600;55.732;37.662;2022-09-09T05:19:24;3.80;;;1.67;;
74243;SDS011;62600;55.732;37.662;2022-09-09T05:20:58;3.42;;;1.80;;
74243;SDS011;62600;55.732;37.662;2022-09-09T05:22:29;3.83;;;1.75;;
74243;SDS011;62600;55.732;37.662;2022-09-09T05:24:00;5.30;;;1.80;;
74243;SDS011;62600;55.732;37.662;2022-09-09T05:25:30;2.38;;;1.45;;
74243;SDS011;62600;55.732;37.662;2022-09-09T05:27:01;4.60;;;1.73;;
74243;SDS011;62600;55.732;37.662;2022-09-09T05:28:33;3.65;;;1.65;;
74243;SDS011;62600;55.732;37.662;2022-09-09T05:30:05;5.18;;;1.73;;
74243;SDS011;62600;55.732;37.662;2022-09-09T05:31:36;2.88;;;1.73;;
74243;SDS011;62600;55.732;37.662;2022-09-09T05:33:06;2.47;;;1.65;;
74243;SDS011;62600;55.732;37.662;2022-09-09T05:34:39;3.45;;;1.60;;
74243;SDS011;62600;55.732;37.662;2022-09-09T05:36:10;2.22;;;1.60;;
74243;SDS011;62600;55.732;37.662;2022-09-09T05:37:45;2.65;;;1.67;;
74243;SDS011;62600;55.732;37.662;2022-09-09T05:39:16;3.88;;;2.20;;
74243;SDS011;62600;55.732;37.662;2022-09-09T05:40:49;2.10;;;1.83;;
74243;SDS011;62600;55.732;37.662;2022-09-09T05:42:20;3.38;;;1.50;;
74243;SDS011;62600;55.732;37.662;2022-09-09T05:43:50;2.30;;;1.70;;
74243;SDS011;62600;55.732;37.662;2022-09-09T05:45:21;3.15;;;1.60;;
74243;SDS011;62600;55.732;37.662;2022-09-09T05:46:51;4.70;;;1.77;;
74243;SDS011;62600;55.732;37.662;2022-09-09T05:48:22;2.50;;;1.50;;
74243;SDS011;62600;55.732;37.662;2022-09-09T05:49:52;4.65;;;1.88;;
74243;SDS011;62600;55.732;37.662;2022-09-09T05:51:26;6.07;;;1.70;;
74243;SDS011;62600;55.732;37.662;2022-09-09T05:53:00;4.50;;;1.42;;
74243;SDS011;62600;55.732;37.662;2022-09-09T05:54:30;2.17;;;1.40;;
74243;SDS011;62600;55.732;37.662;2022-09-09T05:56:05;2.88;;;1.42;;
74243;SDS011;62600;55.732;37.662;2022-09-09T05:57:36;3.92;;;1.70;;
74243;SDS011;62600;55.732;37.662;2022-09-09T05:59:07;3.75;;;1.77;;
74243;SDS011;62600;55.732;37.662;2022-09-09T06:00:37;2.55;;;1.70;;
74243;SDS011;62600;55.732;37.662;2022-09-09T06:02:08;3.45;;;1.48;;
74243;SDS011;62600;55.732;37.662;2022-09-09T06:03:39;2.97;;;1.55;;
74243;SDS011;62600;55.732;37.662;2022-09-09T06:05:10;3.47;;;1.20;;
74243;SDS011;62600;55.732;37.662;2022-09-09T06:06:41;2.08;;;1.20;;
74243;SDS011;62600;55.732;37.662;2022-09-09T06:08:12;2.42;;;1.00;;
74243;SDS011;62600;55.732;37.662;2022-09-09T06:09:42;3.30;;;1.13;;
74243;SDS011;62600;55.732;37.662;2022-09-09T06:11:14;1.90;;;1.20;;
74243;SDS011;62600;55.732;37.662;2022-09-09T06:12:46;1.33;;;0.85;;
74243;SDS011;62600;55.732;37.662;2022-09-09T06:14:17;3.10;;;1.20;;
74243;SDS011;62600;55.732;37.662;2022-09-09T06:15:51;3.38;;;1.20;;
74243;SDS011;62600;55.732;37.662;2022-09-09T06:17:22;1.50;;;1.10;;
74243;SDS011;62600;55.732;37.662;2022-09-09T06:18:53;1.83;;;1.08;;
74243;SDS011;62600;55.732;37.662;2022-09-09T06:20:24;2.13;;;1.20;;
74243;SDS011;62600;55.732;37.662;2022-09-09T06:21:55;2.33;;;1.10;;
74243;SDS011;62600;55.732;37.662;2022-09-09T06:23:26;1.50;;;1.00;;
74243;SDS011;62600;55.732;37.662;2022-09-09T06:24:58;1.15;;;0.82;;
74243;SDS011;62600;55.732;37.662;2022-09-09T06:26:35;1.80;;;1.10;;
74243;SDS011;62600;55.732;37.662;2022-09-09T06:28:07;2.45;;;0.90;;
74243;SDS011;62600;55.732;37.662;2022-09-09T06:29:37;2.00;;;1.00;;
74243;SDS011;62600;55.732;37.662;2022-09-09T06:31:09;1.40;;;0.80;;
74243;SDS011;62600;55.732;37.662;2022-09-09T06:32:41;1.13;;;0.80;;
74243;SDS011;62600;55.732;37.662;2022-09-09T06:34:12;1.23;;;0.80;;
74243;SDS011;62600;55.732;37.662;2022-09-09T06:35:50;1.60;;;0.90;;
74243;SDS011;62600;55.732;37.662;2022-09-09T06:37:23;1.20;;;0.90;;
74243;SDS011;62600;55.732;37.662;2022-09-09T06:38:54;1.27;;;0.90;;
74243;SDS011;62600;55.732;37.662;2022-09-09T06:40:25;2.22;;;1.10;;
74243;SDS011;62600;55.732;37.662;2022-09-09T06:41:55;1.92;;;1.00;;
74243;SDS011;62600;55.732;37.662;2022-09-09T06:43:28;1.88;;;1.17;;
74243;SDS011;62600;55.732;37.662;2022-09-09T06:44:58;1.92;;;0.90;;
74243;SDS011;62600;55.732;37.662;2022-09-09T06:46:29;1.98;;;1.10;;
74243;SDS011;62600;55.732;37.662;2022-09-09T06:48:02;3.30;;;1.10;;
74243;SDS011;62600;55.732;37.662;2022-09-09T06:49:33;1.83;;;0.90;;
74243;SDS011;62600;55.732;37.662;2022-09-09T06:51:08;1.67;;;0.90;;
74243;SDS011;62600;55.732;37.662;2022-09-09T06:52:45;1.52;;;0.88;;
74243;SDS011;62600;55.732;37.662;2022-09-09T06:54:17;4.78;;;0.98;;
74243;SDS011;62600;55.732;37.662;2022-09-09T06:55:49;1.65;;;1.00;;
74243;SDS011;62600;55.732;37.662;2022-09-09T06:57:20;2.05;;;0.90;;
74243;SDS011;62600;55.732;37.662;2022-09-09T06:58:51;2.15;;;0.80;;
74243;SDS011;62600;55.732;37.662;2022-09-09T07:00:22;1.73;;;0.90;;
74243;SDS011;62600;55.732;37.662;2022-09-09T07:01:53;2.03;;;1.00;;
74243;SDS011;62600;55.732;37.662;2022-09-09T07:03:24;1.58;;;0.95;;
74243;SDS011;62600;55.732;37.662;2022-09-09T07:04:55;2.25;;;1.00;;
74243;SDS011;62600;55.732;37.662;2022-09-09T07:06:28;2.17;;;0.90;;
74243;SDS011;62600;55.732;37.662;2022-09-09T07:08:04;2.42;;;0.95;;
74243;SDS011;62600;55.732;37.662;2022-09-09T07:09:35;1.40;;;1.00;;
74243;SDS011;62600;55.732;37.662;2022-09-09T07:11:07;2.00;;;1.00;;
74243;SDS011;62600;55.732;37.662;2022-09-09T07:12:38;2.17;;;1.13;;
74243;SDS011;62600;55.732;37.662;2022-09-09T07:14:08;1.95;;;0.80;;
74243;SDS011;62600;55.732;37.662;2022-09-09T07:15:42;3.70;;;1.02;;
74243;SDS011;62600;55.732;37.662;2022-09-09T07:17:13;1.10;;;0.88;;
74243;SDS011;62600;55.732;37.662;2022-09-09T07:18:44;1.65;;;0.80;;
74243;SDS011;62600;55.732;37.662;2022-09-09T07:20:14;1.15;;;0.80;;
74243;SDS011;62600;55.732;37.662;2022-09-09T07:21:45;0.95;;;0.70;;
74243;SDS011;62600;55.732;37.662;2022-09-09T07:23:16;1.25;;;0.80;;
74243;SDS011;62600;55.732;37.662;2022-09-09T07:24:46;1.13;;;0.90;;
74243;SDS011;62600;55.732;37.662;2022-09-09T07:26:17;1.23;;;0.70;;
74243;SDS011;62600;55.732;37.662;2022-09-09T07:27:49;0.80;;;0.70;;
74243;SDS011;62600;55.732;37.662;2022-09-09T07:29:20;1.05;;;0.52;;
74243;SDS011;62600;55.732;37.662;2022-09-09T07:30:54;0.93;;;0.60;;
74243;SDS011;62600;55.732;37.662;2022-09-09T07:32:25;1.20;;;0.88;;
74243;SDS011;62600;55.732;37.662;2022-09-09T07:34:00;1.52;;;0.80;;
74243;SDS011;62600;55.732;37.662;2022-09-09T07:35:32;1.15;;;0.60;;
74243;SDS011;62600;55.732;37.662;2022-09-09T07:37:02;2.00;;;0.90;;
74243;SDS011;62600;55.732;37.662;2022-09-09T07:38:39;1.52;;;0.98;;
74243;SDS011;62600;55.732;37.662;2022-09-09T07:40:10;1.27;;;0.70;;
74243;SDS011;62600;55.732;37.662;2022-09-09T07:41:42;0.85;;;0.60;;
74243;SDS011;62600;55.732;37.662;2022-09-09T07:43:16;2.40;;;0.70;;
74243;SDS011;62600;55.732;37.662;2022-09-09T07:44:49;1.88;;;0.70;;
74243;SDS011;62600;55.732;37.662;2022-09-09T07:46:20;1.17;;;0.63;;
74243;SDS011;62600;55.732;37.662;2022-09-09T07:47:51;0.95;;;0.52;;
74243;SDS011;62600;55.732;37.662;2022-09-09T07:49:22;1.05;;;0.70;;
74243;SDS011;62600;55.732;37.662;2022-09-09T07:51:02;2.78;;;1.05;;
74243;SDS011;62600;55.732;37.662;2022-09-09T07:52:46;2.10;;;0.90;;
74243;SDS011;62600;55.732;37.662;2022-09-09T07:54:18;1.83;;;0.93;;
74243;SDS011;62600;55.732;37.662;2022-09-09T07:55:53;1.13;;;1.00;;
74243;SDS011;62600;55.732;37.662;2022-09-09T07:57:25;1.23;;;0.73;;
74243;SDS011;62600;55.732;37.662;2022-09-09T07:58:56;2.75;;;0.70;;
74243;SDS011;62600;55.732;37.662;2022-09-09T08:00:28;0.68;;;0.60;;
74243;SDS011;62600;55.732;37.662;2022-09-09T08:01:59;0.60;;;0.40;;
74243;SDS011;62600;55.732;37.662;2022-09-09T08:03:29;0.70;;;0.60;;
74243;SDS011;62600;55.732;37.662;2022-09-09T08:05:00;0.98;;;0.60;;
74243;SDS011;62600;55.732;37.662;2022-09-09T08:06:35;0.85;;;0.50;;
74243;SDS011;62600;55.732;37.662;2022-09-09T08:08:07;1.00;;;0.50;;
74243;SDS011;62600;55.732;37.662;2022-09-09T08:09:39;1.00;;;0.60;;
74243;SDS011;62600;55.732;37.662;2022-09-09T08:11:12;1.27;;;0.70;;
74243;SDS011;62600;55.732;37.662;2022-09-09T08:12:45;1.33;;;0.60;;
74243;SDS011;62600;55.732;37.662;2022-09-09T08:14:15;1.67;;;0.95;;
74243;SDS011;62600;55.732;37.662;2022-09-09T08:15:46;2.70;;;0.88;;
74243;SDS011;62600;55.732;37.662;2022-09-09T08:17:17;2.25;;;0.90;;
74243;SDS011;62600;55.732;37.662;2022-09-09T08:18:48;1.90;;;1.00;;
74243;SDS011;62600;55.732;37.662;2022-09-09T08:20:19;1.30;;;0.60;;
74243;SDS011;62600;55.732;37.662;2022-09-09T08:21:50;2.42;;;0.75;;
74243;SDS011;62600;55.732;37.662;2022-09-09T08:23:20;1.23;;;0.60;;
74243;SDS011;62600;55.732;37.662;2022-09-09T08:24:51;1.17;;;0.70;;
74243;SDS011;62600;55.732;37.662;2022-09-09T08:26:23;1.42;;;0.60;;
74243;SDS011;62600;55.732;37.662;2022-09-09T08:27:54;1.10;;;0.75;;
74243;SDS011;62600;55.732;37.662;2022-09-09T08:29:25;0.77;;;0.68;;
74243;SDS011;62600;55.732;37.662;2022-09-09T08:30:56;3.05;;;0.65;;
74243;SDS011;62600;55.732;37.662;2022-09-09T08:32:35;1.10;;;0.80;;
74243;SDS011;62600;55.732;37.662;2022-09-09T08:34:06;1.00;;;0.70;;
74243;SDS011;62600;55.732;37.662;2022-09-09T08:35:37;2.45;;;1.13;;
74243;SDS011;62600;55.732;37.662;2022-09-09T08:37:07;0.88;;;0.70;;
74243;SDS011;62600;55.732;37.662;2022-09-09T08:38:38;1.23;;;0.80;;
74243;SDS011;62600;55.732;37.662;2022-09-09T08:40:09;1.30;;;0.88;;
74243;SDS011;62600;55.732;37.662;2022-09-09T08:41:52;1.33;;;0.75;;
74243;SDS011;62600;55.732;37.662;2022-09-09T08:43:33;3.80;;;1.10;;
74243;SDS011;62600;55.732;37.662;2022-09-09T08:46:59;1.65;;;1.00;;
74243;SDS011;62600;55.732;37.662;2022-09-09T08:48:52;1.70;;;0.98;;
74243;SDS011;62600;55.732;37.662;2022-09-09T08:50:37;3.47;;;1.00;;
74243;SDS011;62600;55.732;37.662;2022-09-09T08:52:19;2.53;;;0.93;;
74243;SDS011;62600;55.732;37.662;2022-09-09T08:53:57;2.45;;;1.10;;
74243;SDS011;62600;55.732;37.662;2022-09-09T08:55:35;2.08;;;1.10;;
74243;SDS011;62600;55.732;37.662;2022-09-09T08:57:18;1.13;;;0.77;;
74243;SDS011;62600;55.732;37.662;2022-09-09T08:58:56;1.65;;;0.70;;
74243;SDS011;62600;55.732;37.662;2022-09-09T09:00:36;1.25;;;0.70;;
74243;SDS011;62600;55.732;37.662;2022-09-09T09:03:53;1.38;;;0.80;;
74243;SDS011;62600;55.732;37.662;2022-09-09T09:05:35;1.98;;;0.90;;
74243;SDS011;62600;55.732;37.662;2022-09-09T09:07:20;2.17;;;1.00;;
74243;SDS011;62600;55.732;37.662;2022-09-09T09:10:46;2.38;;;0.80;;
74243;SDS011;62600;55.732;37.662;2022-09-09T09:12:20;2.90;;;0.80;;
74243;SDS011;62600;55.732;37.662;2022-09-09T09:15:34;1.63;;;0.70;;
74243;SDS011;62600;55.732;37.662;2022-09-09T09:17:14;2.90;;;1.52;;
74243;SDS011;62600;55.732;37.662;2022-09-09T09:18:49;2.88;;;1.10;;
74243;SDS011;62600;55.732;37.662;2022-09-09T09:20:23;3.28;;;1.02;;
74243;SDS011;62600;55.732;37.662;2022-09-09T09:22:20;5.05;;;1.70;;
74243;SDS011;62600;55.732;37.662;2022-09-09T09:24:04;1.90;;;0.90;;
74243;SDS011;62600;55.732;37.662;2022-09-09T09:25:45;1.63;;;0.98;;
74243;SDS011;62600;55.732;37.662;2022-09-09T09:27:18;1.92;;;1.10;;
74243;SDS011;62600;55.732;37.662;2022-09-09T09:29:03;3.08;;;1.23;;
74243;SDS011;62600;55.732;37.662;2022-09-09T09:30:42;1.80;;;1.55;;
74243;SDS011;62600;55.732;37.662;2022-09-09T09:32:19;1.25;;;0.80;;
74243;SDS011;62600;55.732;37.662;2022-09-09T09:33:53;2.63;;;0.77;;
74243;SDS011;62600;55.732;37.662;2022-09-09T09:35:24;1.27;;;0.77;;
74243;SDS011;62600;55.732;37.662;2022-09-09T09:36:59;3.63;;;0.90;;
74243;SDS011;62600;55.732;37.662;2022-09-09T09:38:31;2.40;;;0.90;;
74243;SDS011;62600;55.732;37.662;2022-09-09T09:40:11;2.60;;;1.00;;
74243;SDS011;62600;55.732;37.662;2022-09-09T09:41:45;2.78;;;0.77;;
74243;SDS011;62600;55.732;37.662;2022-09-09T09:43:18;3.95;;;1.30;;
74243;SDS011;62600;55.732;37.662;2022-09-09T09:44:52;2.28;;;1.00;;
74243;SDS011;62600;55.732;37.662;2022-09-09T09:46:23;2.25;;;1.10;;
74243;SDS011;62600;55.732;37.662;2022-09-09T09:47:59;4.00;;;1.42;;
74243;SDS011;62600;55.732;37.662;2022-09-09T09:49:34;3.45;;;0.95;;
74243;SDS011;62600;55.732;37.662;2022-09-09T09:51:08;2.70;;;1.00;;
74243;SDS011;62600;55.732;37.662;2022-09-09T09:52:42;2.15;;;1.00;;
74243;SDS011;62600;55.732;37.662;2022-09-09T09:54:26;2.78;;;1.02;;
74243;SDS011;62600;55.732;37.662;2022-09-09T09:56:00;3.33;;;1.15;;
74243;SDS011;62600;55.732;37.662;2022-09-09T09:57:32;2.15;;;1.13;;
74243;SDS011;62600;55.732;37.662;2022-09-09T09:59:04;4.00;;;1.00;;
74243;SDS011;62600;55.732;37.662;2022-09-09T10:00:34;4.38;;;1.80;;
74243;SDS011;62600;55.732;37.662;2022-09-09T10:02:24;1.70;;;0.90;;
74243;SDS011;62600;55.732;37.662;2022-09-09T10:05:32;4.32;;;1.00;;
74243;SDS011;62600;55.732;37.662;2022-09-09T10:07:12;2.13;;;0.95;;
74243;SDS011;62600;55.732;37.662;2022-09-09T10:10:26;0.90;;;0.73;;
74243;SDS011;62600;55.732;37.662;2022-09-09T10:20:12;1.20;;;0.80;;
74243;SDS011;62600;55.732;37.662;2022-09-09T10:23:59;1.30;;;0.82;;
74243;SDS011;62600;55.732;37.662;2022-09-09T10:37:21;1.45;;;0.85;;
74243;SDS011;62600;55.732;37.662;2022-09-09T10:39:04;3.03;;;0.88;;
74243;SDS011;62600;55.732;37.662;2022-09-09T10:42:21;1.52;;;0.90;;
74243;SDS011;62600;55.732;37.662;2022-09-09T10:49:11;1.40;;;0.90;;
74243;SDS011;62600;55.732;37.662;2022-09-09T10:50:51;2.40;;;0.70;;